Nearby METAR Reports

 

EGNX - East Midlands, United Kingdom
Distance from station: SW 12mi, 19km
Updated: 15/08/2022 21:50
Clear
Clear
 Wind from calm
Wind: Calm
Temperature: 20°C
Dew Point: 14°C
Humidity: 69%
Barometer: 1005 hPa
Summary: Clear
Visibility: greater than 10 km
2022/08/15 20:50 EGNX 152050Z 00000KT CAVOK 20/14 Q1005
EGYE - Barkston Heath R, United Kingdom
Distance from station: E 24mi, 39km
Updated: 15/08/2022 21:50

 Wind from W
Wind: W 13 km/h
2022/08/15 20:50 EGYE 152050Z AUTO 28007KT //// VV/// ///// Q////
 
EGYD - Cranwell Raf, United Kingdom
Distance from station: ENE 28mi, 44km
Updated: 15/08/2022 21:50
Clear
Clear
 Wind from WNW
Wind: WNW 13 km/h
Temperature: 21°C
Dew Point: 12°C
Humidity: 57%
Barometer: 1004 hPa
Clouds: Clear
Visibility: 10 km
2022/08/15 20:50 EGYD 152050Z AUTO 29007KT 9999 NCD 21/12 Q1004
EGXW - Waddington Raf, United Kingdom
Distance from station: ENE 31mi, 50km
Updated: 15/08/2022 21:50
Overcast
Overcast
 Wind from WNW
Wind: WNW 11 km/h
Temperature: 22°C
Dew Point: 12°C
Humidity: 53%
Barometer: 1004 hPa
Clouds: Overcast
Visibility: 10 km
Cloud details: Overcast 4267 m
2022/08/15 20:50 EGXW 152050Z AUTO 29006KT 9999 OVC140/// 22/12 Q1004
 
EGSY - Yorkshire/Humber, United Kingdom
Distance from station: NNW 33mi, 52km
Updated: 15/08/2022 16:50
NOT Current
Partly cloudy
Partly cloudy
 Wind from S
Wind: S 9 km/h
Temperature: 21°C
Dew Point: 16°C
Humidity: 73%
Barometer: 1003 hPa
Clouds: Partly cloudy
Visibility: 10 km
Cloud details: Partly cloudy 1463 m
2022/08/15 15:50 EGSY 151550Z 19005KT 140V220 9999 SCT048CB 21/16 Q1003
EGXP - Scampton Raf, United Kingdom
Distance from station: NE 35mi, 56km
Updated: 15/08/2022 21:50
Mostly cloudy
Mostly cloudy
 Wind from WNW
Wind: WNW 13 km/h
Temperature: 21°C
Dew Point: 13°C
Humidity: 60%
Barometer: 1004 hPa
Clouds: Mostly cloudy
Visibility: 10 km
Cloud details: Mostly cloudy 3962 m
2022/08/15 20:50 EGXP 152050Z AUTO 29007KT 9999 // BKN130/// 21/13 Q1004
 
EGXT - Wittering Raf, United Kingdom
Distance from station: SE 37mi, 59km
Updated: 15/08/2022 21:50
Few Clouds
Few Clouds
 Wind from W
Wind: W 11 km/h
Temperature: 20°C
Dew Point: 12°C
Humidity: 60%
Barometer: 1004 hPa
Clouds: Few Clouds
Visibility: 10 km
Cloud details: Few Clouds 6706 m
2022/08/15 20:50 EGXT 152050Z AUTO 28006KT 9999 FEW220/// 20/12 Q1004
EGCN - Doncaster Sheffi, United Kingdom
Distance from station: N 37mi, 60km
Updated: 15/08/2022 22:20
Clear
Clear
 Wind from W
Wind: W 9 km/h
Summary: Clear
Visibility: greater than 10 km
2022/08/15 21:20 EGCN 152120Z 28005KT 230V300 CAVOK 21/1
 
EGBB - Birmingham Airpo, United Kingdom
Distance from station: SW 42mi, 67km
Updated: 15/08/2022 22:20
Clear
Clear
 Wind from NW
Wind: NW 11 km/h
Temperature: 21°C
Dew Point: 14°C
Humidity: 64%
Barometer: 1005 hPa
Summary: Clear
Visibility: greater than 10 km
2022/08/15 21:20 EGBB 152120Z 31006KT CAVOK 21/14 Q1005
EGXC - Coningsby Raf, United Kingdom
Distance from station: ENE 42mi, 68km
Updated: 15/08/2022 21:50
Clear
Clear
 Wind from ENE
Wind: ENE 6 km/h
Temperature: 20°C
Dew Point: 15°C
Humidity: 73%
Barometer: 1004 hPa
Summary: Clear
Visibility: greater than 10 km
2022/08/15 20:50 EGXC 152050Z 07003KT CAVOK 20/15 Q1004 RMK BLU